Time;durP1;ratioP1;P1;durP2;ratioP2;P2;SDS_P1;SDS_P2;PMS_P1;PMS_P2;Temp;Humidity;BMP_temperature;BMP_pressure;BME280_temperature;BME280_humidity;BME280_pressure;Samples;Min_cycle;Max_cycle;Signal;HPM_P1;HPM_P2
2022/01/18 00:00:44;;;;;;;8.10;4.87;;;6.80;99.90;;;6.96;90.10;102616.44;5012576;28;20643;-70
2022/01/18 00:03:12;;;;;;;9.40;5.23;;;6.80;99.90;;;6.99;89.34;102605.13;5011614;28;20628;-71
2022/01/18 00:05:39;;;;;;;6.57;4.53;;;6.80;99.90;;;7.02;89.03;102608.53;5010524;28;20657;-71
2022/01/18 00:08:06;;;;;;;7.33;5.30;;;6.90;99.90;;;7.10;88.66;102605.72;5013049;28;20633;-72
2022/01/18 00:10:34;;;;;;;8.37;4.40;;;7.00;99.90;;;7.08;88.04;102602.31;5011501;28;20661;-71
2022/01/18 00:15:42;;;;;;;10.43;5.40;;;7.10;99.90;;;7.07;88.83;102604.03;5011091;28;20665;-71
2022/01/18 00:18:17;;;;;;;7.90;4.83;;;6.90;99.90;;;7.04;88.56;102608.47;4988245;28;20617;-71
2022/01/18 00:23:45;;;;;;;7.70;4.67;;;6.90;99.90;;;7.06;88.42;102627.44;5012118;28;20609;-71
2022/01/18 00:26:13;;;;;;;9.90;5.60;;;6.90;99.90;;;7.05;89.01;102634.38;5011025;28;20663;-71
2022/01/18 00:28:41;;;;;;;11.60;5.70;;;6.90;99.90;;;7.08;89.44;102641.25;5012006;28;20615;-71
2022/01/18 00:36:35;;;;;;;11.70;7.00;;;6.90;99.90;;;7.05;89.69;102641.31;5030657;28;20651;-71
2022/01/18 00:39:06;;;;;;;10.07;6.27;;;6.90;99.90;;;7.04;90.45;102647.41;5020112;28;20625;-71
2022/01/18 00:41:34;;;;;;;8.67;4.50;;;6.90;99.90;;;7.08;90.23;102643.84;5013675;28;20602;-71
2022/01/18 00:44:02;;;;;;;7.60;5.07;;;7.00;99.90;;;7.05;89.88;102639.56;5010141;28;21213;-71
2022/01/18 00:46:30;;;;;;;9.73;5.27;;;6.90;99.90;;;7.03;91.02;102641.34;5012391;28;20999;-70
2022/01/18 00:49:00;;;;;;;9.90;5.17;;;6.90;99.90;;;6.96;90.41;102638.97;5011325;28;20612;-72
2022/01/18 00:51:30;;;;;;;6.43;4.33;;;6.80;99.90;;;6.96;91.54;102649.34;5011336;28;20636;-71
2022/01/18 00:53:59;;;;;;;8.97;5.17;;;6.80;99.90;;;6.93;91.71;102655.47;5011380;28;20613;-71
2022/01/18 00:56:29;;;;;;;7.57;4.57;;;6.80;99.90;;;6.89;90.90;102651.25;4993544;28;20740;-71
2022/01/18 00:58:57;;;;;;;4.77;3.97;;;6.80;99.90;;;6.95;91.34;102652.81;5010542;28;20618;-70
2022/01/18 01:01:29;;;;;;;8.90;5.40;;;6.80;99.90;;;6.86;92.17;102656.50;5009964;28;21212;-71
2022/01/18 01:04:01;;;;;;;8.60;4.80;;;6.70;99.90;;;6.87;91.68;102652.16;5012139;28;20657;-71
2022/01/18 01:06:29;;;;;;;5.20;4.07;;;6.70;99.90;;;6.85;91.70;102648.75;5009243;28;20662;-71
2022/01/18 01:08:56;;;;;;;8.70;5.03;;;6.70;99.90;;;6.79;92.49;102652.34;5009555;28;20634;-71
2022/01/18 01:11:24;;;;;;;7.07;4.27;;;6.60;99.90;;;6.79;92.52;102654.94;5009660;28;21054;-71
2022/01/18 01:13:57;;;;;;;9.43;4.67;;;6.60;99.90;;;6.78;92.18;102654.97;5009222;28;20633;-71
2022/01/18 01:16:47;;;;;;;6.33;4.50;;;6.60;99.90;;;6.81;92.28;102660.09;5009883;28;21233;-71
2022/01/18 01:32:15;;;;;;;6.93;4.30;;;6.70;99.90;;;6.74;93.14;102655.94;5009692;28;20633;-71
2022/01/18 01:46:18;;;;;;;12.17;6.07;;;6.50;99.90;;;6.56;94.06;102662.41;5010299;28;20689;-71
2022/01/18 01:48:51;;;;;;;11.50;6.07;;;6.50;99.90;;;6.57;93.50;102665.88;5009964;28;21267;-71
2022/01/18 01:51:20;;;;;;;7.00;4.73;;;6.40;99.90;;;6.54;94.65;102666.78;5010354;28;20661;-72
2022/01/18 01:53:47;;;;;;;10.37;5.20;;;6.40;99.90;;;6.55;94.26;102670.25;5010470;28;20632;-71
2022/01/18 01:56:14;;;;;;;11.30;5.57;;;6.40;99.90;;;6.56;93.91;102669.38;5010235;28;20649;-73
2022/01/18 01:58:41;;;;;;;8.70;5.40;;;6.40;99.90;;;6.52;94.64;102665.97;5009728;28;20610;-71
2022/01/18 02:01:08;;;;;;;9.13;6.17;;;6.40;99.90;;;6.57;94.62;102663.28;5009161;28;20637;-70
2022/01/18 02:03:36;;;;;;;10.17;6.60;;;6.50;99.90;;;6.59;94.65;102664.09;5011199;28;20617;-71
2022/01/18 02:06:03;;;;;;;11.23;5.83;;;6.40;99.90;;;6.57;95.18;102663.28;5008813;28;20657;-71
2022/01/18 02:08:30;;;;;;;10.73;5.37;;;6.40;99.90;;;6.49;94.87;102678.16;5011095;28;20633;-71
2022/01/18 02:10:57;;;;;;;11.17;6.17;;;6.40;99.90;;;6.52;94.58;102668.56;5009719;28;20651;-71
2022/01/18 02:13:24;;;;;;;7.83;4.27;;;6.40;99.90;;;6.50;95.15;102674.66;5009320;28;20630;-72
2022/01/18 02:24:01;;;;;;;11.57;7.03;;;6.20;99.90;;;6.32;95.24;102672.50;4995922;28;20615;-71
2022/01/18 02:26:28;;;;;;;9.03;5.07;;;6.20;99.90;;;6.36;94.75;102674.13;5009332;28;21274;-71
2022/01/18 02:28:59;;;;;;;7.20;5.60;;;6.30;99.90;;;6.31;95.41;102673.38;5011431;28;21198;-71
2022/01/18 02:31:27;;;;;;;10.83;6.10;;;6.20;99.90;;;6.22;96.84;102670.09;5010041;28;20684;-71
2022/01/18 02:34:01;;;;;;;12.20;6.67;;;6.10;99.90;;;6.10;97.08;102665.19;5020350;28;20927;-71
2022/01/18 02:36:27;;;;;;;10.77;5.87;;;6.00;99.90;;;6.23;96.19;102666.63;5008623;28;20617;-71
2022/01/18 02:38:54;;;;;;;12.50;6.77;;;6.20;99.90;;;5.92;97.80;102673.34;5009889;28;20627;-71
2022/01/18 02:41:25;;;;;;;8.10;4.90;;;6.00;99.90;;;6.00;98.34;102668.00;5010711;28;20601;-71
2022/01/18 02:43:55;;;;;;;14.10;7.65;;;6.00;99.90;;;6.03;98.27;102667.94;5009672;28;20609;-71
2022/01/18 02:46:23;;;;;;;10.80;6.23;;;5.90;99.90;;;6.11;97.18;102661.69;5009322;28;20230;-71
2022/01/18 02:48:50;;;;;;;15.63;7.20;;;6.00;99.90;;;6.15;97.25;102652.13;5011581;28;20716;-71
2022/01/18 02:51:17;;;;;;;13.77;7.43;;;6.00;99.90;;;6.20;97.22;102653.72;5009651;28;21113;-69
2022/01/18 02:54:01;;;;;;;13.53;7.47;;;6.10;99.90;;;6.26;97.25;102656.19;5009204;28;20744;-71
2022/01/18 02:56:41;;;;;;;12.07;6.57;;;6.10;99.90;;;6.34;97.20;102657.75;5010613;28;20648;-71
2022/01/18 03:04:21;;;;;;;12.53;6.00;;;6.30;99.90;;;6.45;95.91;102656.66;5009975;28;20624;-71
2022/01/18 03:06:48;;;;;;;15.10;6.40;;;6.40;99.90;;;6.43;95.94;102657.56;4995326;28;20737;-71
2022/01/18 03:09:15;;;;;;;12.57;6.90;;;6.40;99.90;;;6.29;96.46;102655.28;5008364;28;20736;-71
2022/01/18 03:11:42;;;;;;;13.40;7.63;;;6.30;99.90;;;6.32;96.22;102660.41;5013540;28;20675;-70
2022/01/18 03:14:10;;;;;;;12.20;6.10;;;6.20;99.90;;;6.30;96.32;102666.50;5012925;28;20720;-71
2022/01/18 03:16:37;;;;;;;11.80;6.33;;;6.10;99.90;;;6.27;96.76;102664.81;5012872;28;21282;-70
2022/01/18 03:19:04;;;;;;;12.07;6.97;;;6.20;99.90;;;6.25;95.85;102675.25;5014030;28;20666;-68
2022/01/18 03:21:31;;;;;;;9.70;6.50;;;6.20;99.90;;;6.28;96.64;102666.53;5012917;28;20641;-70
2022/01/18 03:29:43;;;;;;;7.97;4.83;;;6.10;99.90;;;6.08;96.99;102687.69;4993837;28;20621;-71
2022/01/18 03:32:10;;;;;;;11.70;6.47;;;6.10;99.90;;;6.15;96.81;102684.06;5003802;28;20740;-71
2022/01/18 03:34:37;;;;;;;8.80;5.10;;;6.10;99.90;;;6.14;96.55;102681.53;5016537;28;20623;-70
2022/01/18 03:37:04;;;;;;;13.02;5.70;;;6.00;99.90;;;6.16;97.35;102685.78;5033170;28;20628;-71
2022/01/18 03:39:31;;;;;;;14.03;6.17;;;6.00;99.90;;;6.15;97.09;102691.03;5017234;28;20217;-71
2022/01/18 03:42:26;;;;;;;12.20;6.37;;;6.00;99.90;;;6.18;97.12;102683.16;5013746;28;20704;-70
2022/01/18 03:44:47;;;;;;;10.20;5.75;;;6.10;99.90;;;6.17;96.43;102682.34;5012649;28;20716;-70
2022/01/18 03:47:19;;;;;;;10.93;5.53;;;6.10;99.90;;;6.17;96.14;102681.47;5012071;28;20223;-71
2022/01/18 03:49:46;;;;;;;10.18;5.30;;;6.10;99.90;;;6.20;96.41;102681.38;5013473;28;20602;-71
2022/01/18 03:52:13;;;;;;;12.03;6.53;;;6.10;99.90;;;6.20;97.33;102677.06;5013016;28;20207;-70
2022/01/18 03:54:43;;;;;;;14.00;7.30;;;6.10;99.90;;;6.21;97.33;102677.91;4993180;28;21035;-70
2022/01/18 03:57:10;;;;;;;17.97;7.73;;;6.10;99.90;;;6.24;96.94;102683.03;4992663;28;21072;-71
2022/01/18 03:59:37;;;;;;;18.23;7.60;;;6.10;99.90;;;6.24;97.51;102686.47;5012036;28;20736;-70
2022/01/18 04:02:07;;;;;;;13.27;7.40;;;6.10;99.90;;;6.28;96.21;102682.94;5012372;28;21019;-72
2022/01/18 04:04:35;;;;;;;13.07;7.20;;;6.20;99.90;;;6.34;96.21;102688.88;5011918;28;20633;-71
2022/01/18 04:07:03;;;;;;;12.43;6.13;;;6.20;99.90;;;6.32;95.58;102688.06;5013345;28;20637;-70
2022/01/18 04:09:30;;;;;;;11.70;7.00;;;6.20;99.90;;;6.31;96.28;102694.13;5013266;28;20985;-70
2022/01/18 04:11:57;;;;;;;10.63;6.40;;;6.20;99.90;;;6.29;95.43;102691.56;5011638;28;20664;-71
2022/01/18 04:14:24;;;;;;;10.20;6.33;;;6.20;99.90;;;6.32;96.05;102690.66;5010982;28;20640;-70
2022/01/18 04:27:58;;;;;;;14.67;7.30;;;6.30;99.90;;;6.42;95.60;102693.00;5013639;28;20617;-70
2022/01/18 04:30:25;;;;;;;16.40;7.80;;;6.30;99.90;;;6.44;95.62;102690.38;5012929;28;20660;-70
2022/01/18 04:32:52;;;;;;;11.80;7.07;;;6.30;99.90;;;6.46;95.55;102688.59;5017279;28;20615;-70
2022/01/18 04:35:19;;;;;;;11.80;6.83;;;6.30;99.90;;;6.48;95.57;102686.81;5019847;28;20695;-70
2022/01/18 04:37:46;;;;;;;11.10;6.70;;;6.30;99.90;;;6.45;95.67;102694.69;5011051;28;20608;-71
2022/01/18 04:40:16;;;;;;;13.80;6.93;;;6.30;99.90;;;6.45;95.38;102692.09;5011182;28;21200;-70
2022/01/18 04:48:29;;;;;;;11.87;6.23;;;6.30;99.90;;;6.41;95.10;102696.47;5003808;28;20645;-70
2022/01/18 04:51:09;;;;;;;12.80;5.93;;;6.30;99.90;;;6.39;94.84;102708.63;5012238;28;21250;-71
2022/01/18 04:53:48;;;;;;;11.00;5.50;;;6.30;99.90;;;6.38;95.91;102700.88;5011294;28;20727;-71
2022/01/18 04:56:18;;;;;;;9.20;5.60;;;6.30;99.90;;;6.33;96.15;102708.75;5010850;28;20659;-71
2022/01/18 04:58:45;;;;;;;9.90;5.70;;;6.20;99.90;;;6.28;95.97;102708.84;5011270;28;20613;-70
2022/01/18 05:01:13;;;;;;;12.77;6.33;;;6.20;99.90;;;6.20;95.93;102721.13;4995024;28;20628;-70
2022/01/18 05:03:40;;;;;;;13.57;7.17;;;6.10;99.90;;;6.25;95.97;102715.84;5012105;28;20728;-71
2022/01/18 05:06:13;;;;;;;10.67;6.20;;;6.20;99.90;;;6.24;95.54;102724.50;5004110;28;20642;-71
2022/01/18 05:08:40;;;;;;;11.17;6.37;;;6.20;99.90;;;6.24;96.13;102724.50;5000263;28;20629;-71
2022/01/18 05:11:12;;;;;;;9.47;5.67;;;6.10;99.90;;;6.22;95.92;102727.13;5011248;28;20658;-71
2022/01/18 05:21:31;;;;;;;6.97;5.17;;;6.00;99.90;;;6.13;96.77;102736.84;4996700;28;20960;-64
2022/01/18 05:23:59;;;;;;;9.23;4.70;;;6.10;99.90;;;6.14;95.96;102733.38;4978313;28;20617;-64
2022/01/18 05:26:28;;;;;;;13.23;6.60;;;6.00;99.90;;;6.14;96.04;102733.38;5002050;28;20654;-63
2022/01/18 05:28:57;;;;;;;10.27;5.23;;;6.00;99.90;;;6.13;96.83;102734.25;4975859;28;20598;-66
2022/01/18 05:31:25;;;;;;;8.47;5.10;;;6.00;99.90;;;6.08;96.57;102728.31;4974702;28;20661;-64
2022/01/18 05:33:53;;;;;;;8.47;4.80;;;6.00;99.90;;;6.06;96.39;102724.91;5005487;28;21074;-65
2022/01/18 05:36:20;;;;;;;10.30;6.10;;;6.00;99.90;;;6.01;97.19;102722.38;4970432;28;20625;-65
2022/01/18 05:38:47;;;;;;;16.57;6.07;;;5.90;99.90;;;6.04;96.65;102724.94;4971704;28;20725;-66
2022/01/18 05:41:16;;;;;;;10.98;5.93;;;6.00;99.90;;;6.02;96.66;102736.22;4958219;28;21215;-63
2022/01/18 05:43:48;;;;;;;10.67;5.67;;;5.90;99.90;;;6.06;96.45;102724.91;4975281;28;20218;-63
2022/01/18 05:46:16;;;;;;;9.67;5.60;;;5.90;99.90;;;6.01;96.94;102726.72;4990280;28;21082;-64
2022/01/18 05:48:43;;;;;;;12.20;6.50;;;5.90;99.90;;;6.06;96.34;102730.94;4958034;28;20625;-64
2022/01/18 05:51:10;;;;;;;9.80;6.17;;;6.00;99.90;;;6.05;96.83;102730.94;4973578;28;20666;-63
2022/01/18 05:53:39;;;;;;;6.90;5.10;;;5.90;99.90;;;6.02;97.24;102729.28;4975246;28;20602;-65
2022/01/18 05:56:11;;;;;;;8.00;5.13;;;5.90;99.90;;;6.03;97.00;102743.94;4969860;28;20654;-65
2022/01/18 05:58:41;;;;;;;10.80;5.90;;;5.90;99.90;;;6.03;97.34;102745.69;4975661;28;20713;-63
2022/01/18 06:01:08;;;;;;;13.20;6.20;;;5.90;99.90;;;6.05;96.99;102746.50;4985889;28;21004;-63
2022/01/18 06:03:53;;;;;;;16.20;6.13;;;5.90;99.90;;;6.02;96.87;102747.44;4975149;28;20614;-65
2022/01/18 06:09:06;;;;;;;14.40;6.80;;;5.90;99.90;;;6.04;97.43;102750.84;4958465;28;20633;-64
2022/01/18 06:11:33;;;;;;;10.37;6.23;;;5.90;99.90;;;6.06;97.03;102754.25;4988451;28;20666;-64
2022/01/18 06:14:00;;;;;;;10.10;6.00;;;5.90;99.90;;;6.07;96.76;102753.38;4990842;28;20720;-63
2022/01/18 06:16:27;;;;;;;12.27;6.50;;;6.00;99.90;;;6.05;97.15;102749.94;4965875;28;20698;-64
2022/01/18 06:18:55;;;;;;;10.10;5.67;;;6.00;99.90;;;6.09;96.60;102754.19;4954116;28;20618;-64
2022/01/18 06:21:22;;;;;;;15.37;6.73;;;6.00;99.90;;;6.08;97.60;102749.91;4983807;28;20634;-64
2022/01/18 06:23:49;;;;;;;10.57;5.70;;;6.00;99.90;;;6.12;96.40;102748.97;4973778;28;20626;-65
2022/01/18 06:26:17;;;;;;;11.23;6.50;;;6.00;99.90;;;6.09;96.82;102743.00;4972415;28;20693;-65
2022/01/18 06:28:45;;;;;;;12.60;7.30;;;6.00;99.90;;;6.08;97.07;102749.91;4973447;28;20789;-62
2022/01/18 06:31:17;;;;;;;12.70;6.87;;;6.00;99.90;;;6.09;97.44;102751.59;4973581;28;20662;-64
2022/01/18 06:33:44;;;;;;;17.20;8.80;;;6.00;99.90;;;6.11;97.31;102752.41;4980973;28;20716;-63
2022/01/18 06:36:13;;;;;;;17.43;8.67;;;6.00;99.90;;;6.16;97.22;102758.38;4971114;28;20740;-63
2022/01/18 06:38:40;;;;;;;19.17;8.97;;;6.00;99.90;;;6.11;97.57;102760.19;4962138;28;21240;-64
2022/01/18 06:41:07;;;;;;;23.13;9.50;;;6.00;99.90;;;6.08;98.01;102760.28;4961666;28;21189;-64
2022/01/18 06:43:34;;;;;;;17.67;8.90;;;6.00;99.90;;;6.10;97.96;102766.28;4993945;28;20643;-64
2022/01/18 06:46:01;;;;;;;19.33;8.80;;;6.00;99.90;;;6.11;96.88;102775.75;4993238;28;20641;-66
2022/01/18 06:48:28;;;;;;;18.33;8.47;;;6.00;99.90;;;6.16;96.47;102773.94;4994077;28;20626;-66
2022/01/18 06:50:55;;;;;;;17.87;9.57;;;6.10;99.90;;;6.19;97.12;102773.03;4994243;28;21217;-65
2022/01/18 06:53:22;;;;;;;16.60;8.73;;;6.10;99.90;;;6.13;97.27;102779.16;4977051;28;20618;-65
2022/01/18 06:55:52;;;;;;;17.60;7.97;;;6.00;99.90;;;6.18;97.07;102779.94;4963395;28;21074;-63
2022/01/18 06:58:20;;;;;;;16.63;8.57;;;6.10;99.90;;;6.20;96.19;102779.91;4959588;28;20682;-64
2022/01/18 07:00:48;;;;;;;18.73;8.80;;;6.10;99.90;;;6.24;96.19;102791.91;4975783;28;21040;-64
2022/01/18 07:03:17;;;;;;;15.57;8.67;;;6.10;99.90;;;6.19;96.25;102797.22;4976772;28;20632;-64
2022/01/18 07:05:44;;;;;;;18.63;8.70;;;6.10;99.90;;;6.21;97.08;102799.75;4994230;28;21116;-66
2022/01/18 07:08:15;;;;;;;16.83;8.43;;;6.10;99.90;;;6.19;96.99;102812.75;4977916;28;20629;-66
2022/01/18 07:10:42;;;;;;;16.10;9.10;;;6.10;99.90;;;6.22;96.98;102812.69;4981140;28;20623;-65
2022/01/18 07:13:11;;;;;;;19.57;11.37;;;6.10;99.90;;;6.12;96.83;102813.75;4976018;28;20614;-63
2022/01/18 07:15:38;;;;;;;21.10;11.10;;;6.10;99.90;;;6.17;96.94;102817.13;4993584;28;20650;-63
2022/01/18 07:18:07;;;;;;;16.47;9.37;;;6.10;99.90;;;6.18;96.85;102816.22;4973280;28;20645;-66
2022/01/18 07:20:34;;;;;;;18.80;9.80;;;6.10;99.90;;;6.20;96.69;102816.19;4976357;28;20637;-63
2022/01/18 07:23:01;;;;;;;20.93;9.30;;;6.10;99.90;;;6.24;96.62;102818.69;4994132;28;20625;-63
2022/01/18 07:25:29;;;;;;;17.40;8.77;;;6.10;99.90;;;6.23;97.35;102822.19;4991384;28;20629;-64
2022/01/18 07:27:56;;;;;;;17.57;8.20;;;6.10;99.90;;;6.22;97.77;102822.19;4976637;28;20613;-66
2022/01/18 07:30:23;;;;;;;20.67;9.50;;;6.10;99.90;;;6.24;97.60;102823.03;4992799;28;20618;-65
2022/01/18 07:32:50;;;;;;;19.70;9.50;;;6.10;99.90;;;6.19;97.69;102824.88;4994208;28;20672;-65
2022/01/18 07:35:17;;;;;;;20.50;8.53;;;6.10;99.90;;;6.23;97.69;102829.97;4994924;28;20623;-64
2022/01/18 07:37:44;;;;;;;10.20;6.37;;;6.10;99.90;;;6.28;97.82;102827.28;4978048;28;20637;-65
2022/01/18 07:40:11;;;;;;;21.07;7.07;;;6.20;99.90;;;6.34;96.89;102826.31;4993417;28;20628;-66
2022/01/18 07:42:38;;;;;;;12.40;6.93;;;6.30;99.90;;;6.38;96.95;102830.53;4988842;28;20636;-65
2022/01/18 07:45:06;;;;;;;16.07;8.50;;;6.30;99.90;;;6.39;96.04;102822.72;4991473;28;20642;-66
2022/01/18 07:47:33;;;;;;;13.33;7.40;;;6.30;99.90;;;6.38;96.10;102821.03;4991379;28;20670;-63
2022/01/18 07:50:00;;;;;;;18.07;8.57;;;6.30;99.90;;;6.43;96.75;102823.53;4992540;28;20700;-64
2022/01/18 07:52:27;;;;;;;12.17;7.17;;;6.30;99.90;;;6.44;96.15;102814.84;4993669;28;21468;-65
2022/01/18 07:54:54;;;;;;;14.37;7.40;;;6.30;99.90;;;6.53;95.85;102825.91;4975888;28;20610;-66
2022/01/18 07:57:21;;;;;;;14.10;7.20;;;6.50;99.90;;;6.49;95.64;102818.22;4991421;28;21028;-65
2022/01/18 07:59:48;;;;;;;15.57;7.37;;;6.50;99.90;;;6.45;94.96;102816.56;4974919;28;20717;-62
2022/01/18 08:02:15;;;;;;;14.20;8.20;;;6.40;99.90;;;6.52;95.26;102823.31;4975780;28;21483;-65
2022/01/18 08:04:42;;;;;;;17.37;9.63;;;6.40;99.90;;;6.59;94.99;102820.59;4975025;28;20661;-65
2022/01/18 08:07:09;;;;;;;14.13;7.80;;;6.50;99.90;;;6.70;94.44;102820.34;4975083;28;20633;-66
2022/01/18 08:09:36;;;;;;;19.57;10.00;;;6.60;99.90;;;6.83;94.24;102824.41;4975169;28;20638;-63
2022/01/18 08:12:06;;;;;;;16.77;8.90;;;6.80;99.90;;;6.91;92.95;102827.69;4976683;28;20654;-65
2022/01/18 08:14:41;;;;;;;15.20;8.20;;;6.90;99.90;;;6.97;92.19;102828.41;4990115;28;20689;-64
2022/01/18 08:17:09;;;;;;;22.73;9.60;;;6.90;99.90;;;7.04;91.94;102829.97;4992001;28;20661;-65
2022/01/18 08:19:36;;;;;;;16.50;9.07;;;7.00;99.90;;;7.07;92.31;102829.88;4992563;28;20653;-65
2022/01/18 08:22:08;;;;;;;19.27;9.50;;;7.10;99.90;;;7.04;91.82;102835.16;4970705;28;20638;-62
2022/01/18 08:24:37;;;;;;;23.70;9.50;;;7.00;99.90;;;7.13;91.78;102831.50;4987601;28;20626;-63
2022/01/18 08:27:04;;;;;;;10.23;6.37;;;7.10;99.90;;;7.22;90.59;102840.84;4992693;28;20993;-65
2022/01/18 08:29:31;;;;;;;19.77;9.40;;;7.20;99.90;;;7.25;90.04;102838.16;4993387;28;20625;-64
2022/01/18 08:32:16;;;;;;;17.30;9.20;;;7.20;99.90;;;7.22;90.48;102835.66;4963720;28;21316;-63
2022/01/18 08:34:43;;;;;;;22.20;10.07;;;7.20;99.90;;;7.20;90.60;102837.41;4971165;28;20657;-63
2022/01/18 08:37:10;;;;;;;17.03;9.60;;;7.20;99.90;;;7.22;90.03;102835.66;4971506;28;20665;-64
2022/01/18 08:39:37;;;;;;;18.97;9.10;;;7.20;99.90;;;7.24;90.83;102842.47;4972387;28;20722;-64
2022/01/18 08:42:04;;;;;;;23.67;9.90;;;7.20;99.90;;;7.27;90.79;102842.44;4972951;28;20627;-66
2022/01/18 08:44:31;;;;;;;19.50;9.57;;;7.20;99.90;;;7.32;89.52;102845.78;4971884;28;20666;-63
2022/01/18 08:46:58;;;;;;;7.87;5.00;;;7.30;99.90;;;7.40;90.23;102843.84;4984281;28;21294;-64
2022/01/18 08:49:25;;;;;;;15.57;8.93;;;7.40;99.90;;;7.42;89.17;102839.47;4991738;28;20713;-65
2022/01/18 08:51:52;;;;;;;14.97;7.87;;;7.40;99.90;;;7.46;89.90;102854.09;4990840;28;20658;-63
2022/01/18 08:54:19;;;;;;;18.47;7.70;;;7.50;99.90;;;7.47;88.70;102845.41;4990568;28;21277;-63
2022/01/18 08:56:46;;;;;;;16.87;8.67;;;7.50;99.90;;;7.48;89.26;102843.66;4987679;28;21299;-65
2022/01/18 08:59:22;;;;;;;14.10;6.57;;;7.50;99.90;;;7.55;89.31;102837.41;4957062;28;20647;-64
2022/01/18 09:01:50;;;;;;;13.23;7.87;;;7.60;99.90;;;7.63;88.72;102835.47;4971487;28;20665;-62
2022/01/18 09:04:19;;;;;;;16.53;7.67;;;7.70;99.90;;;7.77;88.98;102841.22;4991121;28;20622;-63
2022/01/18 09:06:49;;;;;;;15.97;8.00;;;7.80;99.90;;;7.99;88.07;102838.88;4970856;28;20686;-64
2022/01/18 09:09:18;;;;;;;16.40;9.17;;;8.10;99.90;;;8.17;86.73;102839.25;4990798;28;20630;-65
2022/01/18 09:11:46;;;;;;;13.90;7.97;;;8.30;99.90;;;8.27;86.26;102847.69;4991143;28;21195;-63
2022/01/18 09:14:15;;;;;;;18.60;10.23;;;8.30;99.90;;;8.33;84.52;102835.38;4990535;28;20646;-64
2022/01/18 09:16:42;;;;;;;20.47;10.23;;;8.40;99.90;;;8.33;84.63;102845.78;4974429;28;20646;-65
2022/01/18 09:19:10;;;;;;;21.87;9.70;;;8.40;99.90;;;8.22;84.48;102842.56;4973176;28;20638;-66
2022/01/18 09:21:37;;;;;;;17.80;8.30;;;8.30;99.90;;;8.24;85.23;102845.97;4957570;28;20706;-63
2022/01/18 09:24:05;;;;;;;14.00;7.93;;;8.20;99.90;;;8.19;85.49;102847.88;4990754;28;20639;-63
2022/01/18 09:26:32;;;;;;;18.90;7.90;;;8.20;99.90;;;8.15;85.01;102843.66;4991294;28;20658;-66
2022/01/18 09:28:59;;;;;;;13.83;6.90;;;8.10;99.90;;;8.13;85.74;102852.38;4973671;28;20725;-63
2022/01/18 09:31:26;;;;;;;15.00;8.40;;;8.10;99.90;;;8.10;85.57;102857.66;4991293;28;20638;-62
2022/01/18 09:33:53;;;;;;;20.00;9.33;;;8.00;99.90;;;8.04;86.30;102855.22;4999293;28;20717;-64
2022/01/18 09:36:20;;;;;;;17.60;8.67;;;8.00;99.90;;;8.08;86.76;102857.69;4984907;28;20654;-66
2022/01/18 09:38:47;;;;;;;15.47;8.77;;;8.00;99.90;;;8.13;86.60;102860.19;4973539;28;20621;-65
2022/01/18 09:41:17;;;;;;;18.90;10.57;;;8.10;99.90;;;8.16;87.17;102852.28;4973547;28;20996;-62
2022/01/18 09:43:44;;;;;;;22.17;10.27;;;8.10;99.90;;;8.04;86.68;102866.47;4991084;28;20634;-65
2022/01/18 09:46:13;;;;;;;18.07;8.70;;;8.10;99.90;;;8.18;86.45;102866.09;4989456;28;20645;-63
2022/01/18 09:48:41;;;;;;;21.43;10.27;;;8.10;99.90;;;8.23;86.68;102862.50;4991058;28;21014;-63
2022/01/18 09:51:09;;;;;;;22.37;10.53;;;8.20;99.90;;;8.27;86.57;102865.88;4979031;28;20637;-61
2022/01/18 09:53:36;;;;;;;24.43;10.47;;;8.20;99.90;;;8.30;86.89;102866.69;4971080;28;20734;-65
2022/01/18 09:56:03;;;;;;;16.60;8.63;;;8.30;99.90;;;8.34;86.95;102870.03;4968083;28;21030;-65
2022/01/18 09:58:30;;;;;;;17.50;8.63;;;8.30;99.90;;;8.38;85.51;102869.91;4971387;28;20725;-64
2022/01/18 10:00:58;;;;;;;18.53;7.90;;;8.30;99.90;;;8.37;85.61;102867.34;4973566;28;20626;-64
2022/01/18 10:03:35;;;;;;;15.37;8.00;;;8.30;99.90;;;8.37;85.68;102863.00;4974660;28;20993;-64
2022/01/18 10:06:06;;;;;;;18.20;9.73;;;8.30;99.90;;;8.45;85.45;102865.41;4990215;28;20819;-64
2022/01/18 10:08:38;;;;;;;20.43;10.60;;;8.40;99.90;;;8.52;85.43;102866.91;4990454;28;20618;-63
2022/01/18 10:11:17;;;;;;;24.10;11.63;;;8.50;99.90;;;8.58;85.24;102857.19;4973075;28;20622;-63
2022/01/18 10:13:48;;;;;;;19.40;10.50;;;8.60;99.90;;;8.62;85.21;102865.78;4989566;28;20769;-64
2022/01/18 10:16:20;;;;;;;16.63;9.80;;;8.60;99.90;;;8.65;85.50;102863.06;4973614;28;20644;-65
2022/01/18 10:19:00;;;;;;;24.30;10.40;;;8.60;99.90;;;8.68;85.31;102860.41;4959127;28;20983;-63
2022/01/18 10:21:34;;;;;;;25.57;12.20;;;8.60;99.90;;;8.70;85.04;102863.81;4990438;28;20638;-63
2022/01/18 10:24:23;;;;;;;24.43;12.87;;;8.70;99.90;;;8.73;85.23;102860.25;4990606;28;21180;-64
2022/01/18 10:26:52;;;;;;;18.97;10.57;;;8.70;99.90;;;8.73;85.33;102853.28;4965327;28;20655;-64
2022/01/18 10:29:26;;;;;;;18.90;9.57;;;8.70;99.90;;;8.77;85.38;102848.88;4954157;28;20634;-62
2022/01/18 10:32:08;;;;;;;21.70;10.30;;;8.70;99.90;;;8.84;85.13;102847.78;4976218;28;20666;-65
2022/01/18 10:37:28;;;;;;;19.87;9.50;;;8.90;99.90;;;8.94;83.85;102850.09;4968727;28;20651;-65
2022/01/18 10:40:06;;;;;;;18.63;9.70;;;8.90;99.90;;;8.97;83.56;102847.38;4969659;28;20626;-65
2022/01/18 10:42:48;;;;;;;18.20;9.87;;;9.00;99.90;;;8.98;83.28;102846.47;4968793;28;20721;-63
2022/01/18 10:45:33;;;;;;;20.57;9.87;;;9.00;99.90;;;8.81;83.75;102838.31;4973115;28;21013;-62
2022/01/18 10:48:14;;;;;;;19.77;10.27;;;8.90;99.90;;;8.94;82.56;102837.06;4973738;28;20618;-65
2022/01/18 10:50:46;;;;;;;17.63;9.37;;;9.00;99.90;;;8.94;83.58;102836.19;4972893;28;20981;-65
2022/01/18 10:53:25;;;;;;;18.03;9.33;;;9.00;99.90;;;8.98;83.41;102830.84;4988959;28;20657;-66
2022/01/18 10:56:13;;;;;;;16.97;9.00;;;9.00;99.90;;;9.04;83.53;102822.84;4972407;28;21005;-65
2022/01/18 10:58:52;;;;;;;21.20;10.43;;;9.00;99.90;;;9.10;83.01;102829.59;4972504;28;20630;-64
2022/01/18 11:01:21;;;;;;;17.07;9.43;;;9.10;99.90;;;9.13;82.67;102829.53;4990819;28;20628;-66
2022/01/18 11:04:14;;;;;;;18.20;9.70;;;9.10;99.90;;;9.13;82.90;102825.19;4973618;28;20733;-64
2022/01/18 11:06:57;;;;;;;20.53;9.67;;;9.10;99.90;;;9.19;82.72;102830.19;4956711;28;20654;-64
2022/01/18 11:09:24;;;;;;;15.70;8.23;;;9.10;99.90;;;9.22;82.45;102826.63;4971864;28;21006;-63
2022/01/18 11:11:52;;;;;;;13.77;7.30;;;9.10;99.90;;;9.20;81.83;102826.66;4957316;28;20685;-64
2022/01/18 11:14:22;;;;;;;11.77;7.10;;;9.10;99.90;;;9.22;81.69;102819.66;4972552;28;20641;-62
2022/01/18 11:16:50;;;;;;;7.20;4.50;;;9.10;99.90;;;9.15;78.78;102823.38;4997291;23;20806;-70
2022/01/18 11:21:52;;;;;;;7.00;4.53;;;9.20;99.90;;;9.25;75.07;102816.97;4975552;28;20629;-70
2022/01/18 11:24:21;;;;;;;9.30;5.33;;;9.20;99.90;;;9.32;74.81;102820.22;4993921;28;20717;-70
2022/01/18 11:26:49;;;;;;;7.90;4.80;;;9.30;99.90;;;9.40;75.24;102815.63;4978218;28;21067;-70
2022/01/18 11:29:19;;;;;;;8.27;4.73;;;9.40;99.90;;;9.43;73.69;102815.53;4980155;28;20660;-71
2022/01/18 11:31:51;;;;;;;8.67;5.03;;;9.40;99.90;;;9.41;74.77;102814.72;4968973;28;20620;-70
2022/01/18 11:34:49;;;;;;;10.80;5.20;;;9.40;99.90;;;9.38;74.39;102813.06;4981971;28;21239;-70
2022/01/18 11:37:45;;;;;;;5.20;3.87;;;9.40;99.90;;;9.43;73.96;102804.25;4966863;28;21096;-70
2022/01/18 11:40:17;;;;;;;3.73;2.87;;;9.50;99.90;;;9.47;72.09;102808.44;4954517;28;20658;-70
2022/01/18 11:42:56;;;;;;;5.97;3.60;;;9.50;99.90;;;9.41;72.49;102801.69;4980181;28;20627;-70
2022/01/18 11:45:31;;;;;;;5.63;3.90;;;9.40;99.90;;;9.51;72.51;102799.63;4956108;28;20673;-70
2022/01/18 11:48:18;;;;;;;8.70;5.00;;;9.50;99.90;;;9.56;73.10;102793.34;4964027;28;21027;-69
2022/01/18 11:51:05;;;;;;;8.30;5.60;;;9.60;99.90;;;9.67;73.14;102800.81;4940899;28;20616;-69
2022/01/18 11:56:14;;;;;;;9.67;5.53;;;9.70;99.90;;;9.72;74.18;102791.06;4954981;29;20607;-69
2022/01/18 11:58:43;;;;;;;9.03;5.03;;;9.80;99.90;;;9.73;74.52;102792.78;4963233;28;20713;-70
2022/01/18 12:01:12;;;;;;;9.40;5.63;;;9.80;99.90;;;9.70;74.40;102790.28;4974579;28;20723;-68